createdAt,value
2022-08-29T00:03:39.679Z,9.60
2022-08-29T00:07:25.089Z,8.63
2022-08-29T00:11:10.738Z,8.17
2022-08-29T00:14:53.628Z,7.57
2022-08-29T00:18:37.321Z,7.23
2022-08-29T00:22:20.070Z,7.67
2022-08-29T00:26:04.537Z,7.17
2022-08-29T00:29:47.367Z,7.73
2022-08-29T00:33:30.149Z,7.03
2022-08-29T00:37:15.393Z,6.83
2022-08-29T00:40:59.770Z,7.00
2022-08-29T00:44:43.977Z,6.53
2022-08-29T00:48:27.138Z,6.53
2022-08-29T00:52:13.860Z,6.20
2022-08-29T00:55:56.609Z,6.30
2022-08-29T00:59:40.528Z,5.97
2022-08-29T01:03:24.760Z,5.50
2022-08-29T01:07:07.866Z,6.17
2022-08-29T01:11:11.514Z,5.87
2022-08-29T01:14:57.465Z,5.80
2022-08-29T01:18:45.705Z,5.63
2022-08-29T01:22:56.950Z,5.57
2022-08-29T01:26:41.348Z,5.90
2022-08-29T01:30:24.286Z,5.27
2022-08-29T01:34:10.091Z,5.70
2022-08-29T01:37:52.871Z,5.17
2022-08-29T01:41:36.431Z,5.50
2022-08-29T01:45:20.696Z,5.10
2022-08-29T01:49:05.521Z,5.40
2022-08-29T01:52:48.394Z,5.30
2022-08-29T01:56:32.831Z,4.90
2022-08-29T02:00:16.376Z,5.20
2022-08-29T02:04:00.566Z,4.83
2022-08-29T02:07:43.356Z,5.03
2022-08-29T02:11:26.153Z,5.07
2022-08-29T02:15:09.329Z,4.30
2022-08-29T02:18:52.223Z,4.50
2022-08-29T02:22:37.356Z,4.50
2022-08-29T02:26:21.331Z,4.97
2022-08-29T02:30:04.409Z,4.90
2022-08-29T02:33:47.411Z,5.03
2022-08-29T02:37:30.187Z,4.80
2022-08-29T02:41:18.281Z,4.97
2022-08-29T02:45:01.239Z,4.30
2022-08-29T02:48:47.566Z,4.30
2022-08-29T02:52:37.468Z,4.20
2022-08-29T02:56:21.629Z,4.10
2022-08-29T03:00:05.883Z,4.20
2022-08-29T03:03:50.290Z,4.40
2022-08-29T03:07:33.336Z,4.30
2022-08-29T03:11:17.180Z,4.07
2022-08-29T03:15:01.391Z,4.00
2022-08-29T03:18:44.195Z,4.30
2022-08-29T03:22:27.844Z,4.13
2022-08-29T03:26:10.587Z,4.40
2022-08-29T03:29:53.365Z,4.13
2022-08-29T03:33:37.483Z,4.07
2022-08-29T03:37:20.812Z,4.00
2022-08-29T03:41:03.598Z,4.40
2022-08-29T03:44:46.388Z,3.60
2022-08-29T03:48:29.185Z,4.30
2022-08-29T03:52:13.310Z,3.97
2022-08-29T03:55:58.904Z,4.00
2022-08-29T03:59:42.958Z,3.67
2022-08-29T04:03:30.892Z,3.73
2022-08-29T04:07:16.002Z,3.80
2022-08-29T04:10:58.775Z,4.50
2022-08-29T04:14:41.728Z,3.93
2022-08-29T04:18:24.496Z,3.70
2022-08-29T04:22:08.061Z,4.00
2022-08-29T04:26:07.249Z,4.10
2022-08-29T04:29:55.468Z,3.90
2022-08-29T04:33:38.281Z,3.97
2022-08-29T04:37:21.075Z,3.77
2022-08-29T04:41:09.797Z,4.43
2022-08-29T04:44:52.794Z,4.67
2022-08-29T04:48:35.568Z,4.83
2022-08-29T04:52:18.295Z,4.67
2022-08-29T04:56:03.350Z,4.47
2022-08-29T04:59:50.072Z,4.20
2022-08-29T05:03:35.810Z,3.93
2022-08-29T05:07:20.825Z,4.20
2022-08-29T05:11:03.773Z,3.70
2022-08-29T05:14:47.922Z,3.50
2022-08-29T05:18:30.706Z,3.53
2022-08-29T05:22:14.446Z,3.60
2022-08-29T05:25:58.513Z,3.57
2022-08-29T05:29:42.446Z,3.40
2022-08-29T05:33:27.808Z,3.20
2022-08-29T05:37:12.632Z,3.77
2022-08-29T05:40:55.401Z,3.50
2022-08-29T05:44:38.854Z,3.37
2022-08-29T05:48:21.613Z,3.67
2022-08-29T05:52:07.093Z,3.50
2022-08-29T05:55:49.905Z,3.40
2022-08-29T05:59:32.713Z,3.43
2022-08-29T06:03:15.943Z,3.80
2022-08-29T06:06:58.801Z,3.73
2022-08-29T06:10:45.217Z,3.20
2022-08-29T06:14:28.142Z,3.43
2022-08-29T06:18:10.932Z,3.30
2022-08-29T06:21:56.004Z,3.27
2022-08-29T06:25:39.847Z,3.60
2022-08-29T06:29:24.517Z,3.80
2022-08-29T06:33:07.533Z,3.80
2022-08-29T06:36:53.141Z,3.67
2022-08-29T06:40:38.394Z,4.90
2022-08-29T06:44:21.925Z,4.57
2022-08-29T06:48:06.335Z,4.00
2022-08-29T06:51:57.381Z,4.77
2022-08-29T06:55:40.625Z,4.57
2022-08-29T06:59:23.442Z,4.77
2022-08-29T07:03:08.127Z,4.47
2022-08-29T07:06:50.917Z,4.90
2022-08-29T07:10:33.771Z,4.40
2022-08-29T07:14:16.634Z,5.20
2022-08-29T07:18:00.888Z,4.90
2022-08-29T07:21:44.991Z,6.40
2022-08-29T07:25:28.246Z,6.80
2022-08-29T07:29:13.595Z,6.80
2022-08-29T07:32:56.620Z,6.67
2022-08-29T07:36:39.747Z,6.37
2022-08-29T07:40:24.274Z,7.00
2022-08-29T07:44:07.162Z,6.77
2022-08-29T07:47:53.010Z,6.83
2022-08-29T07:51:36.934Z,6.50
2022-08-29T07:55:21.842Z,6.40
2022-08-29T07:59:06.390Z,6.20
2022-08-29T08:02:49.271Z,6.63
2022-08-29T08:06:32.087Z,6.60
2022-08-29T08:10:19.836Z,6.63
2022-08-29T08:14:03.047Z,6.83
2022-08-29T08:17:47.245Z,6.60
2022-08-29T08:21:30.035Z,7.03
2022-08-29T08:25:14.118Z,6.97
2022-08-29T08:28:56.980Z,7.50
2022-08-29T08:32:45.632Z,7.07
2022-08-29T08:36:41.037Z,6.67
2022-08-29T08:40:27.550Z,6.83
2022-08-29T08:44:15.003Z,6.90
2022-08-29T08:48:02.700Z,6.43
2022-08-29T08:51:51.030Z,7.00
2022-08-29T08:55:41.644Z,6.93
2022-08-29T08:59:30.096Z,7.10
2022-08-29T09:03:26.470Z,7.07
2022-08-29T09:07:24.150Z,6.95
2022-08-29T09:11:12.351Z,6.60
2022-08-29T09:15:04.137Z,6.77
2022-08-29T09:18:49.914Z,7.67
2022-08-29T09:22:40.645Z,7.17
2022-08-29T09:26:24.821Z,7.43
2022-08-29T09:30:11.446Z,7.35
2022-08-29T09:33:55.844Z,7.22
2022-08-29T09:37:41.180Z,7.35
2022-08-29T09:41:30.816Z,6.82
2022-08-29T09:45:19.413Z,7.68
2022-08-29T09:49:14.016Z,7.28
2022-08-29T09:53:00.262Z,6.82
2022-08-29T09:56:53.366Z,6.97
2022-08-29T10:00:38.843Z,6.70
2022-08-29T10:04:37.840Z,6.43
2022-08-29T10:08:31.679Z,6.20
2022-08-29T10:12:18.111Z,6.80
2022-08-29T10:16:07.014Z,6.95
2022-08-29T10:19:49.948Z,6.25
2022-08-29T10:23:39.316Z,6.45
2022-08-29T10:27:31.123Z,6.35
2022-08-29T10:31:17.227Z,5.88
2022-08-29T10:35:08.906Z,6.22
2022-08-29T10:38:58.250Z,5.82
2022-08-29T10:42:42.139Z,6.10
2022-08-29T10:46:41.591Z,6.10
2022-08-29T10:50:46.575Z,6.40
2022-08-29T10:54:37.447Z,5.97
2022-08-29T10:58:33.582Z,5.65
2022-08-29T11:02:24.106Z,5.25
2022-08-29T11:06:12.951Z,5.38
2022-08-29T11:09:59.946Z,6.00
2022-08-29T11:13:45.533Z,6.13
2022-08-29T11:17:32.523Z,5.68
2022-08-29T11:21:27.450Z,5.80
2022-08-29T11:25:14.282Z,5.60
2022-08-29T11:29:01.981Z,5.53
2022-08-29T11:32:52.489Z,5.78
2022-08-29T11:36:55.608Z,5.53
2022-08-29T11:45:00.619Z,5.22
2022-08-29T11:48:47.402Z,5.47
2022-08-29T11:52:31.249Z,5.25
2022-08-29T11:56:28.364Z,5.35
2022-08-29T12:00:39.055Z,5.43
2022-08-29T12:04:53.241Z,4.97
2022-08-29T12:08:38.715Z,5.50
2022-08-29T12:12:43.918Z,5.97
2022-08-29T12:16:28.915Z,5.20
2022-08-29T12:20:22.268Z,5.32
2022-08-29T12:24:27.156Z,5.53
2022-08-29T12:28:33.743Z,5.30
2022-08-29T12:32:40.140Z,5.65
2022-08-29T12:36:33.032Z,4.90
2022-08-29T12:40:32.287Z,5.13
2022-08-29T12:44:21.333Z,4.60
2022-08-29T12:48:08.055Z,5.05
2022-08-29T12:51:56.203Z,4.75
2022-08-29T12:55:43.378Z,4.82
2022-08-29T12:59:29.141Z,4.60
2022-08-29T13:03:18.584Z,4.40
2022-08-29T13:07:03.217Z,5.60
2022-08-29T13:10:54.848Z,5.25
2022-08-29T13:14:49.985Z,4.78
2022-08-29T13:18:59.838Z,5.82
2022-08-29T13:22:42.302Z,5.70
2022-08-29T13:26:27.683Z,4.88
2022-08-29T13:30:24.387Z,5.50
2022-08-29T13:34:21.005Z,5.00
2022-08-29T13:38:18.185Z,4.72
2022-08-29T13:42:21.067Z,4.95
2022-08-29T13:46:15.687Z,5.22
2022-08-29T13:50:00.171Z,4.85
2022-08-29T13:53:44.768Z,5.00
2022-08-29T13:57:30.447Z,4.60
2022-08-29T14:01:30.879Z,4.50
2022-08-29T14:05:17.749Z,4.68
2022-08-29T14:09:01.296Z,5.05
2022-08-29T14:12:44.479Z,5.15
2022-08-29T14:16:28.624Z,5.72
2022-08-29T14:20:12.637Z,4.80
2022-08-29T14:23:58.882Z,4.80
2022-08-29T14:27:41.872Z,5.00
2022-08-29T14:31:24.697Z,5.25
2022-08-29T14:35:25.675Z,5.03
2022-08-29T14:39:09.732Z,4.97
2022-08-29T14:42:55.496Z,5.35
2022-08-29T14:46:38.317Z,5.13
2022-08-29T14:50:23.028Z,4.80
2022-08-29T14:54:05.884Z,4.90
2022-08-29T14:57:48.781Z,4.72
2022-08-29T15:01:31.685Z,4.55
2022-08-29T15:05:14.572Z,4.80
2022-08-29T15:08:59.348Z,4.80
2022-08-29T15:12:42.215Z,4.00
2022-08-29T15:16:27.455Z,4.10
2022-08-29T15:20:35.516Z,4.25
2022-08-29T15:24:15.856Z,4.05
2022-08-29T15:27:58.659Z,3.90
2022-08-29T15:31:41.396Z,4.63
2022-08-29T15:35:24.146Z,3.88
2022-08-29T15:39:07.250Z,4.07
2022-08-29T15:42:52.044Z,3.70
2022-08-29T15:46:38.035Z,3.58
2022-08-29T15:50:23.527Z,4.03
2022-08-29T15:54:08.617Z,3.72
2022-08-29T15:57:53.120Z,4.18
2022-08-29T16:01:37.549Z,4.63
2022-08-29T16:05:24.245Z,4.90
2022-08-29T16:09:15.194Z,4.03
2022-08-29T16:13:05.328Z,4.35
2022-08-29T16:16:48.114Z,4.03
2022-08-29T16:20:31.469Z,3.97
2022-08-29T16:24:14.528Z,4.82
2022-08-29T16:27:57.838Z,4.18
2022-08-29T16:31:41.923Z,3.92
2022-08-29T16:35:25.210Z,4.38
2022-08-29T16:39:08.091Z,4.03
2022-08-29T16:42:55.741Z,3.80
2022-08-29T16:46:38.706Z,4.88
2022-08-29T16:50:23.271Z,4.43
2022-08-29T16:54:06.122Z,4.32
2022-08-29T16:58:02.845Z,4.70
2022-08-29T17:01:48.352Z,4.47
2022-08-29T17:05:32.703Z,3.97
2022-08-29T17:09:15.347Z,4.60
2022-08-29T17:12:57.023Z,4.03
2022-08-29T17:16:49.534Z,4.32
2022-08-29T17:20:37.402Z,4.38
2022-08-29T17:24:20.973Z,4.47
2022-08-29T17:28:17.739Z,4.45
2022-08-29T17:32:07.262Z,4.35
2022-08-29T17:35:51.433Z,4.45
2022-08-29T17:39:39.340Z,4.72
2022-08-29T17:43:22.996Z,4.65
2022-08-29T17:47:05.962Z,4.70
2022-08-29T17:50:49.060Z,7.70
2022-08-29T17:54:33.227Z,5.53
2022-08-29T17:58:16.165Z,4.65
2022-08-29T18:01:59.846Z,4.75
2022-08-29T18:05:42.748Z,6.15
2022-08-29T18:09:25.895Z,4.88
2022-08-29T18:13:10.181Z,4.72
2022-08-29T18:16:53.425Z,4.43
2022-08-29T18:20:37.511Z,6.63
2022-08-29T18:24:20.923Z,5.93
2022-08-29T18:28:06.713Z,5.07
2022-08-29T18:31:50.863Z,5.20
2022-08-29T18:35:33.713Z,4.45
2022-08-29T18:39:17.234Z,5.03
2022-08-29T18:43:01.645Z,5.18
2022-08-29T18:46:48.303Z,4.68
2022-08-29T18:50:35.516Z,5.75
2022-08-29T18:54:19.343Z,6.80
2022-08-29T18:58:02.677Z,5.63
2022-08-29T19:01:45.680Z,5.32
2022-08-29T19:05:31.090Z,5.93
2022-08-29T19:09:15.447Z,6.78
2022-08-29T19:12:59.214Z,7.50
2022-08-29T19:16:42.061Z,6.55
2022-08-29T19:20:44.003Z,7.78
2022-08-29T19:24:28.380Z,7.75
2022-08-29T19:28:11.779Z,8.10
2022-08-29T19:31:54.669Z,7.90
2022-08-29T19:35:38.442Z,9.82
2022-08-29T19:39:21.265Z,9.38
2022-08-29T19:43:13.503Z,8.20
2022-08-29T19:46:56.918Z,9.93
2022-08-29T19:50:40.568Z,10.40
2022-08-29T19:54:23.629Z,9.35
2022-08-29T19:58:08.080Z,9.48
2022-08-29T20:01:51.685Z,10.52
2022-08-29T20:05:35.020Z,10.63
2022-08-29T20:13:07.255Z,9.18
2022-08-29T20:16:50.133Z,9.63
2022-08-29T20:20:36.092Z,9.60
2022-08-29T20:24:19.251Z,9.30
2022-08-29T20:28:05.788Z,10.27
2022-08-29T20:31:50.006Z,11.32
2022-08-29T20:35:52.852Z,11.32
2022-08-29T20:39:36.950Z,10.95
2022-08-29T20:43:20.367Z,10.77
2022-08-29T20:47:05.662Z,10.90
2022-08-29T20:50:48.538Z,10.82
2022-08-29T20:54:31.623Z,11.38
2022-08-29T20:58:14.398Z,11.85
2022-08-29T21:01:57.257Z,10.85
2022-08-29T21:05:43.324Z,11.75
2022-08-29T21:09:26.480Z,14.25
2022-08-29T21:13:10.075Z,11.25
2022-08-29T21:16:54.239Z,11.27
2022-08-29T21:20:37.734Z,10.50
2022-08-29T21:24:30.457Z,10.88
2022-08-29T21:28:14.223Z,10.20
2022-08-29T21:31:58.593Z,10.73
2022-08-29T21:35:42.016Z,11.63
2022-08-29T21:39:28.563Z,10.60
2022-08-29T21:43:13.288Z,10.88
2022-08-29T21:46:56.229Z,10.73
2022-08-29T21:50:39.146Z,9.90
2022-08-29T21:54:21.949Z,10.67
2022-08-29T21:58:04.717Z,10.13
2022-08-29T22:01:52.693Z,9.82
2022-08-29T22:05:40.751Z,10.18
2022-08-29T22:09:26.679Z,10.37
2022-08-29T22:13:10.366Z,10.70
2022-08-29T22:16:54.774Z,11.50
2022-08-29T22:20:38.412Z,10.13
2022-08-29T22:24:21.254Z,10.47
2022-08-29T22:28:04.608Z,11.03
2022-08-29T22:31:47.419Z,10.70
2022-08-29T22:35:31.580Z,10.43
2022-08-29T22:39:14.474Z,11.47
2022-08-29T22:42:57.774Z,11.27
2022-08-29T22:46:43.164Z,10.80
2022-08-29T22:50:26.855Z,9.97
2022-08-29T22:54:28.753Z,10.15
2022-08-29T22:58:11.592Z,11.27
2022-08-29T23:01:58.716Z,10.98
2022-08-29T23:05:41.730Z,10.82
2022-08-29T23:09:25.894Z,11.07
2022-08-29T23:13:12.194Z,10.55
2022-08-29T23:16:55.158Z,11.33
2022-08-29T23:20:37.991Z,10.70
2022-08-29T23:24:21.873Z,10.17
2022-08-29T23:28:06.127Z,10.60
2022-08-29T23:31:48.898Z,12.17
2022-08-29T23:35:31.714Z,11.38
2022-08-29T23:39:16.642Z,11.20
2022-08-29T23:42:59.391Z,10.75
2022-08-29T23:46:43.552Z,11.30
2022-08-29T23:50:26.462Z,10.60
2022-08-29T23:54:09.253Z,10.87
2022-08-29T23:57:51.927Z,10.17
